Аэропорт: Курумоч. Самара

ICAO: UWWW

METAR:
2019/01/21 23:00
UWWW 212300Z 24003MPS 9999 -SN SCT026 M11/M12 Q1007 R15/491035 NOSIG RMK QFE744/0992
METAR:
2019/01/21 21:21
TAF UWWW 211951Z 2121/2221 18006G12MPS 2100 -SN BR OVC007 TXM09/2121Z TNM13/2202Z 
      TEMPO 2121/2201 21008G15MPS 0500 +SN BLSN VV003 
     FM220100 25006G13MPS 3100 -SN BR OVC011 
      TEMPO 2201/2212 27007G14MPS 1500 SHSN BLSN VV006